Besiktas Bosphorus — TCOG3 — position and weather

sailwx.info

Track history (hours):
 
Tides and Currents Weather Stations Pressure Air Temp Water Temp Dewpoint Dewpoint Depression Visibility Wind Speed Wind Dir Waves Ship Positions

Besiktas Bosphorus

Last reported at 2016-Feb-06 03:24 UTC. Time now 2016-Feb-09 05:49 UTC.
Position N 44°30' E 037°31'.

Length 274 m; draft 15.5 m.

Type: Tanker. MMSI: 271000817.

Date/timePositionNaut miles runAvg speedWind from/ knotsBaromVisibWave heightAir tempDewpointWater temp
2016-Feb-06 03:24N 44°30' E 037°31'910.4
2016-Feb-06 02:31N 44°36' E 037°41'1 1.1
2016-Feb-06 01:32N 44°36' E 037°42'1 1.2
2016-Feb-06 00:33N 44°36' E 037°44'1 0.7
2016-Feb-05 23:33N 44°37' E 037°45'2 2.2
2016-Feb-05 22:33N 44°35' E 037°43'1 1.2
2016-Feb-05 21:33N 44°36' E 037°44'1 1.0
2016-Feb-05 20:33N 44°36' E 037°45'8 6.8
2016-Feb-05 19:27N 44°36' E 037°35'2 0.5
2016-Feb-05 14:31N 44°38' E 037°37'0 0.1
2016-Feb-05 13:28N 44°38' E 037°37'0 0.1
2016-Feb-05 12:28N 44°38' E 037°37'0 0.1
2016-Feb-05 07:10N 44°38' E 037°37'1 1.2
2016-Feb-05 06:33N 44°38' E 037°36'3 2.6
2016-Feb-05 05:33N 44°35' E 037°37'6 5.6
2016-Feb-05 04:33N 44°32' E 037°30'2 1.8
2016-Feb-05 03:33N 44°32' E 037°28'5 1.2
2016-Feb-04 23:03N 44°36' E 037°24'1 1.6
2016-Feb-04 22:10N 44°35' E 037°25'1 1.7
2016-Feb-04 21:33N 44°34' E 037°26'2 1.7
2016-Feb-04 20:33N 44°33' E 037°27'2 1.9
2016-Feb-04 19:33N 44°32' E 037°29'6 5.7
2016-Feb-04 18:31N 44°32' E 037°37'1 0.6
2016-Feb-04 17:31N 44°32' E 037°37'1 1.3
2016-Feb-04 16:33N 44°31' E 037°36'1 1.2
2016-Feb-04 15:34N 44°30' E 037°34'10 9.9
2016-Feb-04 14:33N 44°37' E 037°24'0 0.2
2016-Feb-04 13:34N 44°38' E 037°24'2 1.9
2016-Feb-04 12:33N 44°36' E 037°24'2 2.5
2016-Feb-04 11:34N 44°33' E 037°25'4 4.5
2016-Feb-04 10:34N 44°34' E 037°31'4 3.8
2016-Feb-04 09:34N 44°34' E 037°36'2 2.2
2016-Feb-04 08:34N 44°33' E 037°40'2 1.8
2016-Feb-04 07:34N 44°32' E 037°39'2 2.4
2016-Feb-04 06:34N 44°31' E 037°36'2 2.0
2016-Feb-04 05:34N 44°31' E 037°33'6 5.6
2016-Feb-04 04:32N 44°36' E 037°32'2 2.0
2016-Feb-04 03:33N 44°34' E 037°32'2 2.1
2016-Feb-04 02:33N 44°32' E 037°31'3 3.1
2016-Feb-04 01:33N 44°32' E 037°27'1 0.1
2016-Feb-03 19:32N 44°33' E 037°26'3 2.3
2016-Feb-03 18:26N 44°33' E 037°23'3 3.2
2016-Feb-03 17:31N 44°32' E 037°27'5 5.6
2016-Feb-03 16:33N 44°35' E 037°33'3 2.8
2016-Feb-03 15:33N 44°32' E 037°32'3 3.0
2016-Feb-03 14:33N 44°35' E 037°32'2 2.0
2016-Feb-03 13:33N 44°33' E 037°30'8 7.8
2016-Feb-03 12:33N 44°38' E 037°21'5 0.7
2016-Feb-03 05:23N 44°34' E 037°26'2 2.9
2016-Feb-03 04:33N 44°32' E 037°28'3 2.8
2016-Feb-03 03:33N 44°30' E 037°31'8 7.8
2016-Feb-03 02:34N 44°36' E 037°38'2 0.2
2016-Feb-02 14:33N 44°38' E 037°37'1 0.8
2016-Feb-02 13:34N 44°38' E 037°38'1 0.9
2016-Feb-02 12:31N 44°38' E 037°37'3 2.6
2016-Feb-02 11:33N 44°36' E 037°37'7 6.7
2016-Feb-02 10:33N 44°34' E 037°46'6 5.5
2016-Feb-02 09:31N 44°35' E 037°54'0 0.1
2016-Feb-02 08:22N 44°35' E 037°54'0 0.0
2016-Feb-02 07:28N 44°35' E 037°54'0 0.0
2016-Feb-02 06:31N 44°35' E 037°54'0 0.1
2016-Feb-02 05:31N 44°35' E 037°54'0 0.0
2016-Feb-02 04:31N 44°35' E 037°54'0 0.1
2016-Feb-02 03:31N 44°35' E 037°54'0 0.0
2016-Feb-02 02:31N 44°35' E 037°54'0 0.0
2016-Feb-02 01:31N 44°35' E 037°54'0 0.0
2016-Feb-02 00:31N 44°35' E 037°54'0 0.0
2016-Feb-01 23:31N 44°35' E 037°54'0 0.0
2016-Feb-01 22:31N 44°35' E 037°54'0 0.0
2016-Feb-01 21:31N 44°35' E 037°54'0 0.0
2016-Feb-01 20:28N 44°35' E 037°54'0 0.0
2016-Feb-01 19:31N 44°35' E 037°54'0 0.0
2016-Feb-01 18:28N 44°35' E 037°54'0 0.1
2016-Feb-01 17:31N 44°35' E 037°54'0 0.1
2016-Feb-01 16:31N 44°35' E 037°54'0 0.0
2016-Feb-01 15:22N 44°35' E 037°54'0 0.1
2016-Feb-01 14:31N 44°35' E 037°54'0 0.1
2016-Feb-01 13:31N 44°35' E 037°54'0 0.2
2016-Feb-01 12:31N 44°35' E 037°54'0 0.0
2016-Feb-01 11:31N 44°35' E 037°54'0 0.0
2016-Feb-01 10:31N 44°35' E 037°54'0 0.0
2016-Feb-01 09:31N 44°35' E 037°54'0 0.0
2016-Feb-01 08:31N 44°35' E 037°54'0 0.0
2016-Feb-01 07:31N 44°35' E 037°54'0 0.0
2016-Feb-01 06:31N 44°35' E 037°54'0 0.1
2016-Feb-01 05:31N 44°35' E 037°54'0 0.1
2016-Feb-01 04:31N 44°35' E 037°54'0 0.1
2016-Feb-01 03:31N 44°35' E 037°54'0 0.0
2016-Feb-01 02:31N 44°35' E 037°54'0 0.0
2016-Feb-01 01:31N 44°35' E 037°54'0 0.0
2016-Feb-01 00:31N 44°35' E 037°54'0 0.1
2016-Jan-31 23:31N 44°35' E 037°54'0 0.1
2016-Jan-31 22:31N 44°35' E 037°54'0 0.1
2016-Jan-31 21:31N 44°35' E 037°54'0 0.0
2016-Jan-31 20:31N 44°35' E 037°54'0 0.1
2016-Jan-31 19:31N 44°35' E 037°54'0 0.1
2016-Jan-31 18:31N 44°35' E 037°54'0 0.0
2016-Jan-31 17:31N 44°35' E 037°54'0 0.1
2016-Jan-31 15:31N 44°35' E 037°54'0 0.0
2016-Jan-31 14:31N 44°35' E 037°54'0 0.0
2016-Jan-31 13:31N 44°35' E 037°54'0 0.0
2016-Jan-31 12:31N 44°35' E 037°54'0 0.0
2016-Jan-31 11:31N 44°35' E 037°54'0 0.1
2016-Jan-31 10:31N 44°35' E 037°54'0 0.1
2016-Jan-31 09:31N 44°35' E 037°54'0 0.1
2016-Jan-31 08:31N 44°35' E 037°54'0 0.0
2016-Jan-31 07:31N 44°35' E 037°54'0 0.0
2016-Jan-31 06:28N 44°35' E 037°54'0 0.0
2016-Jan-31 05:31N 44°35' E 037°54'0 0.0
2016-Jan-31 04:31N 44°35' E 037°54'0 0.0
2016-Jan-31 03:28N 44°35' E 037°54'0 0.0
2016-Jan-31 02:31N 44°35' E 037°54'0 0.1
2016-Jan-31 01:28N 44°35' E 037°54'0 0.1
2016-Jan-31 00:31N 44°35' E 037°54'0 0.2
2016-Jan-30 23:32N 44°35' E 037°54'0 0.0
2016-Jan-30 22:31N 44°35' E 037°54'0 0.0
2016-Jan-30 21:31N 44°35' E 037°54'0 0.0
2016-Jan-30 20:31N 44°35' E 037°54'0 0.0
2016-Jan-30 19:31N 44°35' E 037°54'0 0.0
2016-Jan-30 18:31N 44°35' E 037°54'0 0.0
2016-Jan-30 17:31N 44°35' E 037°54'0 0.0
2016-Jan-30 16:31N 44°35' E 037°54'0 0.1
2016-Jan-30 15:31N 44°35' E 037°54'0 0.1
2016-Jan-30 14:31N 44°35' E 037°54'0 0.0
2016-Jan-30 13:31N 44°35' E 037°54'0 0.0
2016-Jan-30 12:31N 44°35' E 037°54'0 0.0
2016-Jan-30 11:31N 44°35' E 037°54'0 0.1
2016-Jan-30 10:28N 44°35' E 037°54'0 0.0
2016-Jan-30 09:31N 44°35' E 037°54'0 0.0
2016-Jan-30 08:31N 44°35' E 037°54'0 0.0
2016-Jan-30 07:31N 44°35' E 037°54'0 0.0
2016-Jan-30 06:31N 44°35' E 037°54'0 0.0
2016-Jan-30 05:31N 44°35' E 037°54'0 0.0
2016-Jan-30 04:31N 44°35' E 037°54'0 0.0
2016-Jan-30 03:28N 44°35' E 037°54'0 0.1
2016-Jan-30 02:31N 44°35' E 037°54'0 0.0
2016-Jan-30 01:31N 44°35' E 037°54'0 0.0
2016-Jan-30 00:31N 44°35' E 037°54'0 0.0
2016-Jan-29 23:31N 44°35' E 037°54'0 0.0
2016-Jan-29 22:31N 44°35' E 037°54'0 0.0
2016-Jan-29 20:31N 44°35' E 037°54'0 0.0
2016-Jan-29 19:31N 44°35' E 037°54'0 0.0
2016-Jan-29 18:31N 44°35' E 037°54'0 0.0
2016-Jan-29 17:31N 44°35' E 037°54'0 0.0
2016-Jan-29 16:31N 44°35' E 037°54'0 0.0
2016-Jan-29 15:28N 44°35' E 037°54'0 0.0
2016-Jan-29 14:31N 44°35' E 037°54'0 0.0
2016-Jan-29 13:31N 44°35' E 037°54'0 0.0
2016-Jan-29 12:31N 44°35' E 037°54'0 0.0
2016-Jan-29 11:31N 44°35' E 037°54'0 0.0
2016-Jan-29 10:28N 44°35' E 037°54'0 0.0
2016-Jan-29 09:31N 44°35' E 037°54'0 0.1
2016-Jan-29 08:31N 44°35' E 037°54'0 0.0
2016-Jan-29 07:31N 44°35' E 037°54'0 0.0
2016-Jan-29 06:31N 44°35' E 037°54'0 0.0
2016-Jan-29 05:31N 44°35' E 037°54'0 0.0
2016-Jan-29 04:31N 44°35' E 037°54'0 0.0
2016-Jan-29 03:31N 44°35' E 037°54'0 0.0
2016-Jan-29 02:31N 44°35' E 037°54'0 0.0
2016-Jan-29 01:31N 44°35' E 037°54'0 0.0
2016-Jan-29 00:31N 44°35' E 037°54'0 0.0
2016-Jan-28 23:19N 44°35' E 037°54'0 0.0
2016-Jan-28 22:31N 44°35' E 037°54'0 0.0
2016-Jan-28 21:31N 44°35' E 037°54'0 0.0
2016-Jan-28 20:31N 44°35' E 037°54'0 0.0
2016-Jan-28 19:31N 44°35' E 037°54'0 0.1
2016-Jan-28 18:31N 44°35' E 037°54'0 0.1
2016-Jan-28 17:31N 44°35' E 037°54'0 0.1
2016-Jan-28 16:31N 44°35' E 037°54'0 0.0
2016-Jan-28 15:31N 44°35' E 037°54'0 0.0
2016-Jan-28 14:28N 44°35' E 037°54'0 0.0
2016-Jan-28 13:31N 44°35' E 037°54'0 0.0
2016-Jan-28 12:31N 44°35' E 037°54'0 0.0
2016-Jan-28 11:31N 44°35' E 037°54'0 0.1
2016-Jan-28 10:31N 44°35' E 037°54'0 0.0
2016-Jan-28 09:31N 44°35' E 037°54'0 0.0
2016-Jan-28 08:31N 44°35' E 037°54'0 0.1
2016-Jan-28 07:28N 44°35' E 037°54'0 0.1
2016-Jan-28 06:31N 44°35' E 037°54'0 0.0
2016-Jan-28 05:31N 44°35' E 037°54'0 0.0
2016-Jan-28 04:31N 44°35' E 037°54'0 0.0
2016-Jan-28 03:31N 44°35' E 037°54'0 0.0
2016-Jan-28 02:31N 44°35' E 037°54'0 0.0
2016-Jan-28 01:31N 44°35' E 037°54'0 0.0
2016-Jan-28 00:31N 44°35' E 037°54'0 0.0
2016-Jan-27 23:31N 44°35' E 037°54'0 0.0
2016-Jan-27 22:28N 44°35' E 037°54'0 0.1
2016-Jan-27 21:31N 44°35' E 037°54'0 0.1
2016-Jan-27 20:31N 44°35' E 037°54'0 0.1
2016-Jan-27 19:31N 44°35' E 037°54'0 0.0
2016-Jan-27 18:31N 44°35' E 037°54'0 0.0
2016-Jan-27 17:31N 44°35' E 037°54'0 0.0
2016-Jan-27 16:28N 44°35' E 037°54'0 0.0
2016-Jan-27 15:31N 44°35' E 037°54'0 0.1
2016-Jan-27 14:31N 44°35' E 037°54'0 0.0
2016-Jan-27 13:31N 44°35' E 037°54'0 0.0
2016-Jan-27 12:31N 44°35' E 037°54'0 0.0
2016-Jan-27 11:31N 44°35' E 037°54'0 0.0
2016-Jan-27 10:31N 44°35' E 037°54'0 0.0
2016-Jan-27 09:31N 44°35' E 037°54'0 0.0
2016-Jan-27 08:31N 44°35' E 037°54'0 0.0
2016-Jan-27 07:31N 44°35' E 037°54'0 0.1
2016-Jan-27 06:31N 44°35' E 037°54'0 0.0
2016-Jan-27 05:31N 44°35' E 037°54'0 0.0
2016-Jan-27 04:31N 44°35' E 037°54'0 0.1
2016-Jan-27 03:31N 44°35' E 037°54'  
Track history (hours):
 
Tides and Currents Weather Stations Pressure Air Temp Water Temp Dewpoint Dewpoint Depression Visibility Wind Speed Wind Dir Waves Ship Positions

Besiktas Bosphorus

Last reported at 2016-Feb-06 03:24 UTC. Time now 2016-Feb-09 05:49 UTC.
Position N 44°30' E 037°31'.

Length 274 m; draft 15.5 m.

Type: Tanker. MMSI: 271000817.

Date/timePositionNaut miles runAvg speedWind from/ knotsBaromVisibWave heightAir tempDewpointWater temp
2016-Feb-06 03:24N 44°30' E 037°31'910.4
2016-Feb-06 02:31N 44°36' E 037°41'1 1.1
2016-Feb-06 01:32N 44°36' E 037°42'1 1.2
2016-Feb-06 00:33N 44°36' E 037°44'1 0.7
2016-Feb-05 23:33N 44°37' E 037°45'2 2.2
2016-Feb-05 22:33N 44°35' E 037°43'1 1.2
2016-Feb-05 21:33N 44°36' E 037°44'1 1.0
2016-Feb-05 20:33N 44°36' E 037°45'8 6.8
2016-Feb-05 19:27N 44°36' E 037°35'2 0.5
2016-Feb-05 14:31N 44°38' E 037°37'0 0.1
2016-Feb-05 13:28N 44°38' E 037°37'0 0.1
2016-Feb-05 12:28N 44°38' E 037°37'0 0.1
2016-Feb-05 07:10N 44°38' E 037°37'1 1.2
2016-Feb-05 06:33N 44°38' E 037°36'3 2.6
2016-Feb-05 05:33N 44°35' E 037°37'6 5.6
2016-Feb-05 04:33N 44°32' E 037°30'2 1.8
2016-Feb-05 03:33N 44°32' E 037°28'5 1.2
2016-Feb-04 23:03N 44°36' E 037°24'1 1.6
2016-Feb-04 22:10N 44°35' E 037°25'1 1.7
2016-Feb-04 21:33N 44°34' E 037°26'2 1.7
2016-Feb-04 20:33N 44°33' E 037°27'2 1.9
2016-Feb-04 19:33N 44°32' E 037°29'6 5.7
2016-Feb-04 18:31N 44°32' E 037°37'1 0.6
2016-Feb-04 17:31N 44°32' E 037°37'1 1.3
2016-Feb-04 16:33N 44°31' E 037°36'1 1.2
2016-Feb-04 15:34N 44°30' E 037°34'10 9.9
2016-Feb-04 14:33N 44°37' E 037°24'0 0.2
2016-Feb-04 13:34N 44°38' E 037°24'2 1.9
2016-Feb-04 12:33N 44°36' E 037°24'2 2.5
2016-Feb-04 11:34N 44°33' E 037°25'4 4.5
2016-Feb-04 10:34N 44°34' E 037°31'4 3.8
2016-Feb-04 09:34N 44°34' E 037°36'2 2.2
2016-Feb-04 08:34N 44°33' E 037°40'2 1.8
2016-Feb-04 07:34N 44°32' E 037°39'2 2.4
2016-Feb-04 06:34N 44°31' E 037°36'2 2.0
2016-Feb-04 05:34N 44°31' E 037°33'6 5.6
2016-Feb-04 04:32N 44°36' E 037°32'2 2.0
2016-Feb-04 03:33N 44°34' E 037°32'2 2.1
2016-Feb-04 02:33N 44°32' E 037°31'3 3.1
2016-Feb-04 01:33N 44°32' E 037°27'1 0.1
2016-Feb-03 19:32N 44°33' E 037°26'3 2.3
2016-Feb-03 18:26N 44°33' E 037°23'3 3.2
2016-Feb-03 17:31N 44°32' E 037°27'5 5.6
2016-Feb-03 16:33N 44°35' E 037°33'3 2.8
2016-Feb-03 15:33N 44°32' E 037°32'3 3.0
2016-Feb-03 14:33N 44°35' E 037°32'2 2.0
2016-Feb-03 13:33N 44°33' E 037°30'8 7.8
2016-Feb-03 12:33N 44°38' E 037°21'5 0.7
2016-Feb-03 05:23N 44°34' E 037°26'2 2.9
2016-Feb-03 04:33N 44°32' E 037°28'3 2.8
2016-Feb-03 03:33N 44°30' E 037°31'8 7.8
2016-Feb-03 02:34N 44°36' E 037°38'2 0.2
2016-Feb-02 14:33N 44°38' E 037°37'1 0.8
2016-Feb-02 13:34N 44°38' E 037°38'1 0.9
2016-Feb-02 12:31N 44°38' E 037°37'3 2.6
2016-Feb-02 11:33N 44°36' E 037°37'7 6.7
2016-Feb-02 10:33N 44°34' E 037°46'6 5.5
2016-Feb-02 09:31N 44°35' E 037°54'0 0.1
2016-Feb-02 08:22N 44°35' E 037°54'0 0.0
2016-Feb-02 07:28N 44°35' E 037°54'0 0.0
2016-Feb-02 06:31N 44°35' E 037°54'0 0.1
2016-Feb-02 05:31N 44°35' E 037°54'0 0.0
2016-Feb-02 04:31N 44°35' E 037°54'0 0.1
2016-Feb-02 03:31N 44°35' E 037°54'0 0.0
2016-Feb-02 02:31N 44°35' E 037°54'0 0.0
2016-Feb-02 01:31N 44°35' E 037°54'0 0.0
2016-Feb-02 00:31N 44°35' E 037°54'0 0.0
2016-Feb-01 23:31N 44°35' E 037°54'0 0.0
2016-Feb-01 22:31N 44°35' E 037°54'0 0.0
2016-Feb-01 21:31N 44°35' E 037°54'0 0.0
2016-Feb-01 20:28N 44°35' E 037°54'0 0.0
2016-Feb-01 19:31N 44°35' E 037°54'0 0.0
2016-Feb-01 18:28N 44°35' E 037°54'0 0.1
2016-Feb-01 17:31N 44°35' E 037°54'0 0.1
2016-Feb-01 16:31N 44°35' E 037°54'0 0.0
2016-Feb-01 15:22N 44°35' E 037°54'0 0.1
2016-Feb-01 14:31N 44°35' E 037°54'0 0.1
2016-Feb-01 13:31N 44°35' E 037°54'0 0.2
2016-Feb-01 12:31N 44°35' E 037°54'0 0.0
2016-Feb-01 11:31N 44°35' E 037°54'0 0.0
2016-Feb-01 10:31N 44°35' E 037°54'0 0.0
2016-Feb-01 09:31N 44°35' E 037°54'0 0.0
2016-Feb-01 08:31N 44°35' E 037°54'0 0.0
2016-Feb-01 07:31N 44°35' E 037°54'0 0.0
2016-Feb-01 06:31N 44°35' E 037°54'0 0.1
2016-Feb-01 05:31N 44°35' E 037°54'0 0.1
2016-Feb-01 04:31N 44°35' E 037°54'0 0.1
2016-Feb-01 03:31N 44°35' E 037°54'0 0.0
2016-Feb-01 02:31N 44°35' E 037°54'0 0.0
2016-Feb-01 01:31N 44°35' E 037°54'0 0.0
2016-Feb-01 00:31N 44°35' E 037°54'0 0.1
2016-Jan-31 23:31N 44°35' E 037°54'0 0.1
2016-Jan-31 22:31N 44°35' E 037°54'0 0.1
2016-Jan-31 21:31N 44°35' E 037°54'0 0.0
2016-Jan-31 20:31N 44°35' E 037°54'0 0.1
2016-Jan-31 19:31N 44°35' E 037°54'0 0.1
2016-Jan-31 18:31N 44°35' E 037°54'0 0.0
2016-Jan-31 17:31N 44°35' E 037°54'0 0.1
2016-Jan-31 15:31N 44°35' E 037°54'0 0.0
2016-Jan-31 14:31N 44°35' E 037°54'0 0.0
2016-Jan-31 13:31N 44°35' E 037°54'0 0.0
2016-Jan-31 12:31N 44°35' E 037°54'0 0.0
2016-Jan-31 11:31N 44°35' E 037°54'0 0.1
2016-Jan-31 10:31N 44°35' E 037°54'0 0.1
2016-Jan-31 09:31N 44°35' E 037°54'0 0.1
2016-Jan-31 08:31N 44°35' E 037°54'0 0.0
2016-Jan-31 07:31N 44°35' E 037°54'0 0.0
2016-Jan-31 06:28N 44°35' E 037°54'0 0.0
2016-Jan-31 05:31N 44°35' E 037°54'0 0.0
2016-Jan-31 04:31N 44°35' E 037°54'0 0.0
2016-Jan-31 03:28N 44°35' E 037°54'0 0.0
2016-Jan-31 02:31N 44°35' E 037°54'0 0.1
2016-Jan-31 01:28N 44°35' E 037°54'0 0.1
2016-Jan-31 00:31N 44°35' E 037°54'0 0.2
2016-Jan-30 23:32N 44°35' E 037°54'0 0.0
2016-Jan-30 22:31N 44°35' E 037°54'0 0.0
2016-Jan-30 21:31N 44°35' E 037°54'0 0.0
2016-Jan-30 20:31N 44°35' E 037°54'0 0.0
2016-Jan-30 19:31N 44°35' E 037°54'0 0.0
2016-Jan-30 18:31N 44°35' E 037°54'0 0.0
2016-Jan-30 17:31N 44°35' E 037°54'0 0.0
2016-Jan-30 16:31N 44°35' E 037°54'0 0.1
2016-Jan-30 15:31N 44°35' E 037°54'0 0.1
2016-Jan-30 14:31N 44°35' E 037°54'0 0.0
2016-Jan-30 13:31N 44°35' E 037°54'0 0.0
2016-Jan-30 12:31N 44°35' E 037°54'0 0.0
2016-Jan-30 11:31N 44°35' E 037°54'0 0.1
2016-Jan-30 10:28N 44°35' E 037°54'0 0.0
2016-Jan-30 09:31N 44°35' E 037°54'0 0.0
2016-Jan-30 08:31N 44°35' E 037°54'0 0.0
2016-Jan-30 07:31N 44°35' E 037°54'0 0.0
2016-Jan-30 06:31N 44°35' E 037°54'0 0.0
2016-Jan-30 05:31N 44°35' E 037°54'0 0.0
2016-Jan-30 04:31N 44°35' E 037°54'0 0.0
2016-Jan-30 03:28N 44°35' E 037°54'0 0.1
2016-Jan-30 02:31N 44°35' E 037°54'0 0.0
2016-Jan-30 01:31N 44°35' E 037°54'0 0.0
2016-Jan-30 00:31N 44°35' E 037°54'0 0.0
2016-Jan-29 23:31N 44°35' E 037°54'0 0.0
2016-Jan-29 22:31N 44°35' E 037°54'0 0.0
2016-Jan-29 20:31N 44°35' E 037°54'0 0.0
2016-Jan-29 19:31N 44°35' E 037°54'0 0.0
2016-Jan-29 18:31N 44°35' E 037°54'0 0.0
2016-Jan-29 17:31N 44°35' E 037°54'0 0.0
2016-Jan-29 16:31N 44°35' E 037°54'0 0.0
2016-Jan-29 15:28N 44°35' E 037°54'0 0.0
2016-Jan-29 14:31N 44°35' E 037°54'0 0.0
2016-Jan-29 13:31N 44°35' E 037°54'0 0.0
2016-Jan-29 12:31N 44°35' E 037°54'0 0.0
2016-Jan-29 11:31N 44°35' E 037°54'0 0.0
2016-Jan-29 10:28N 44°35' E 037°54'0 0.0
2016-Jan-29 09:31N 44°35' E 037°54'0 0.1
2016-Jan-29 08:31N 44°35' E 037°54'0 0.0
2016-Jan-29 07:31N 44°35' E 037°54'0 0.0
2016-Jan-29 06:31N 44°35' E 037°54'0 0.0
2016-Jan-29 05:31N 44°35' E 037°54'0 0.0
2016-Jan-29 04:31N 44°35' E 037°54'0 0.0
2016-Jan-29 03:31N 44°35' E 037°54'0 0.0
2016-Jan-29 02:31N 44°35' E 037°54'0 0.0
2016-Jan-29 01:31N 44°35' E 037°54'0 0.0
2016-Jan-29 00:31N 44°35' E 037°54'0 0.0
2016-Jan-28 23:19N 44°35' E 037°54'0 0.0
2016-Jan-28 22:31N 44°35' E 037°54'0 0.0
2016-Jan-28 21:31N 44°35' E 037°54'0 0.0
2016-Jan-28 20:31N 44°35' E 037°54'0 0.0
2016-Jan-28 19:31N 44°35' E 037°54'0 0.1
2016-Jan-28 18:31N 44°35' E 037°54'0 0.1
2016-Jan-28 17:31N 44°35' E 037°54'0 0.1
2016-Jan-28 16:31N 44°35' E 037°54'0 0.0
2016-Jan-28 15:31N 44°35' E 037°54'0 0.0
2016-Jan-28 14:28N 44°35' E 037°54'0 0.0
2016-Jan-28 13:31N 44°35' E 037°54'0 0.0
2016-Jan-28 12:31N 44°35' E 037°54'0 0.0
2016-Jan-28 11:31N 44°35' E 037°54'0 0.1
2016-Jan-28 10:31N 44°35' E 037°54'0 0.0
2016-Jan-28 09:31N 44°35' E 037°54'0 0.0
2016-Jan-28 08:31N 44°35' E 037°54'0 0.1
2016-Jan-28 07:28N 44°35' E 037°54'0 0.1
2016-Jan-28 06:31N 44°35' E 037°54'0 0.0
2016-Jan-28 05:31N 44°35' E 037°54'0 0.0
2016-Jan-28 04:31N 44°35' E 037°54'0 0.0
2016-Jan-28 03:31N 44°35' E 037°54'0 0.0
2016-Jan-28 02:31N 44°35' E 037°54'0 0.0
2016-Jan-28 01:31N 44°35' E 037°54'0 0.0
2016-Jan-28 00:31N 44°35' E 037°54'0 0.0
2016-Jan-27 23:31N 44°35' E 037°54'0 0.0
2016-Jan-27 22:28N 44°35' E 037°54'0 0.1
2016-Jan-27 21:31N 44°35' E 037°54'0 0.1
2016-Jan-27 20:31N 44°35' E 037°54'0 0.1
2016-Jan-27 19:31N 44°35' E 037°54'0 0.0
2016-Jan-27 18:31N 44°35' E 037°54'0 0.0
2016-Jan-27 17:31N 44°35' E 037°54'0 0.0
2016-Jan-27 16:28N 44°35' E 037°54'0 0.0
2016-Jan-27 15:31N 44°35' E 037°54'0 0.1
2016-Jan-27 14:31N 44°35' E 037°54'0 0.0
2016-Jan-27 13:31N 44°35' E 037°54'0 0.0
2016-Jan-27 12:31N 44°35' E 037°54'0 0.0
2016-Jan-27 11:31N 44°35' E 037°54'0 0.0
2016-Jan-27 10:31N 44°35' E 037°54'0 0.0
2016-Jan-27 09:31N 44°35' E 037°54'0 0.0
2016-Jan-27 08:31N 44°35' E 037°54'0 0.0
2016-Jan-27 07:31N 44°35' E 037°54'0 0.1
2016-Jan-27 06:31N 44°35' E 037°54'0 0.0
2016-Jan-27 05:31N 44°35' E 037°54'0 0.0
2016-Jan-27 04:31N 44°35' E 037°54'0 0.1
2016-Jan-27 03:31N 44°35' E 037°54'  

Dump ship's entire track history